#dbistima — V2PX5 — position and weather

sailwx.info

Track history (hours):
 
Tides and Currents Weather Stations Pressure Air Temp Water Temp Dewpoint Dewpoint Depression Visibility Wind Speed Wind Dir Waves Ship Positions

#dbistima

Last reported at 2014-Nov-01 02:33 UTC. Time now 2014-Nov-01 06:57 UTC.
Position N 53°02' E 001°19'.

MMSI: 304010972.

Date/timePositionNaut miles runAvg speedWind from/ knotsBaromVisibWave heightAir tempDewpointWater temp
2014-Nov-01 02:33N 53°02' E 001°19'8 8.3
2014-Nov-01 01:34N 52°59' E 001°31'8 8.0
2014-Nov-01 00:34N 52°54' E 001°41'9 8.7
2014-Oct-31 23:33N 52°48' E 001°53'9 9.4
2014-Oct-31 22:34N 52°43' E 002°06'1010.0
2014-Oct-31 21:33N 52°38' E 002°20'1110.4
2014-Oct-31 20:32N 52°33' E 002°35'1010.3
2014-Oct-31 19:33N 52°27' E 002°49'1010.1
2014-Oct-31 18:34N 52°22' E 003°03'10 9.8
2014-Oct-31 17:34N 52°16' E 003°15'10 9.8
2014-Oct-31 16:33N 52°10' E 003°29'10 9.9
2014-Oct-31 15:34N 52°05' E 003°43'1010.3
2014-Oct-31 14:34N 52°01' E 003°58'1211.9
2014-Oct-31 13:34N 51°55' E 004°14'1010.1
2014-Oct-31 12:33N 51°50' E 004°29'8 8.0
2014-Oct-31 11:34N 51°44' E 004°38'3 0.4
2014-Oct-31 03:23N 51°41' E 004°35'0 0.0
2014-Oct-31 02:33N 51°41' E 004°35'0 0.0
2014-Oct-31 00:11N 51°41' E 004°36'0 0.0
2014-Oct-30 19:11N 51°41' E 004°36'0 0.0
2014-Oct-30 18:15N 51°41' E 004°36'0 0.0
2014-Oct-30 17:32N 51°41' E 004°36'3 2.8
2014-Oct-30 16:33N 51°44' E 004°38'7 7.1
2014-Oct-30 15:34N 51°50' E 004°31'8 7.8
2014-Oct-30 14:33N 51°53' E 004°20'8 8.4
2014-Oct-30 13:33N 51°58' E 004°09'9 9.0
2014-Oct-30 12:33N 51°60' E 003°55'7 6.6
2014-Oct-30 11:33N 51°57' E 003°46'0 0.2
2014-Oct-30 10:33N 51°56' E 003°46'0 0.0
2014-Oct-30 09:06N 51°56' E 003°46'0 0.0
2014-Oct-30 08:30N 51°56' E 003°46'0 0.0
2014-Oct-30 07:33N 51°56' E 003°46'0 0.1
2014-Oct-30 05:33N 51°57' E 003°46'13 5.4
2014-Oct-30 03:05N 51°54' E 003°24'3 5.4
2014-Oct-30 02:31N 51°52' E 003°21'8 8.8
2014-Oct-30 01:33N 51°45' E 003°13'10 9.7
2014-Oct-30 00:33N 51°37' E 003°21'1010.0
2014-Oct-29 23:33N 51°29' E 003°30'10 9.5
2014-Oct-29 22:33N 51°23' E 003°43'5 5.2
2014-Oct-29 21:32N 51°20' E 003°49'7 6.9
2014-Oct-29 20:33N 51°13' E 003°48'3 2.9
2014-Oct-29 19:31N 51°10' E 003°47'0 0.0
2014-Oct-29 18:31N 51°10' E 003°47'0 0.0
2014-Oct-29 17:31N 51°10' E 003°47'0 0.0
2014-Oct-29 16:31N 51°10' E 003°47'0 0.0
2014-Oct-29 15:31N 51°10' E 003°47'0 0.0
2014-Oct-29 14:31N 51°10' E 003°47'0 0.0
2014-Oct-29 13:31N 51°10' E 003°47'0 0.0
2014-Oct-29 12:31N 51°10' E 003°47'0 0.0
2014-Oct-29 11:28N 51°10' E 003°47'0 0.0
2014-Oct-29 10:31N 51°10' E 003°47'0 0.0
2014-Oct-29 09:31N 51°10' E 003°47'0 0.0
2014-Oct-29 08:31N 51°10' E 003°47'0 0.0
2014-Oct-29 07:31N 51°10' E 003°47'0 0.0
2014-Oct-29 06:28N 51°10' E 003°47'0 0.0
2014-Oct-29 05:31N 51°10' E 003°47'0 0.0
2014-Oct-29 04:31N 51°10' E 003°47'0 0.0
2014-Oct-29 03:31N 51°10' E 003°47'0 0.0
2014-Oct-29 02:31N 51°10' E 003°47'0 0.0
2014-Oct-29 01:31N 51°10' E 003°47'0 0.0
2014-Oct-29 00:31N 51°10' E 003°47'0 0.0
2014-Oct-28 23:31N 51°10' E 003°47'0 0.0
2014-Oct-28 22:31N 51°10' E 003°47'0 0.0
2014-Oct-28 21:31N 51°10' E 003°47'1 0.8
2014-Oct-28 20:33N 51°10' E 003°48'8 7.8
2014-Oct-28 19:33N 51°18' E 003°50'3 2.9
2014-Oct-28 18:33N 51°21' E 003°48'8 7.8
2014-Oct-28 17:33N 51°25' E 003°38'10 9.7
2014-Oct-28 16:33N 51°24' E 003°22'1211.5
2014-Oct-28 15:29N 51°22' E 003°03'1111.9
2014-Oct-28 14:33N 51°22' E 002°45'6 6.2
2014-Oct-28 13:33N 51°22' E 002°35'8 7.6
2014-Oct-28 12:33N 51°20' E 002°24'9 9.3
2014-Oct-28 11:33N 51°15' E 002°11'11 8.2
2014-Oct-28 10:09N 51°10' E 001°55'5 7.8
2014-Oct-28 09:34N 51°07' E 001°49'8 7.6
2014-Oct-28 08:33N 51°02' E 001°40'8 8.1
2014-Oct-28 07:33N 50°56' E 001°31'10 9.0
2014-Oct-28 06:26N 50°47' E 001°25'29810.0
2014-Oct-27 00:33N 48°45' W 005°37'31 7.7
2014-Oct-26 20:33N 48°14' W 005°33'271 9.5
2014-Oct-25 16:07N 43°59' W 003°23'6 9.4
2014-Oct-25 15:30N 43°53' W 003°20'34 7.8
2014-Oct-25 11:07N 43°22' W 003°04'0 0.0
2014-Oct-25 09:26N 43°22' W 003°04'0 0.0
2014-Oct-25 08:23N 43°21' W 003°04'0 0.0
2014-Oct-25 07:17N 43°21' W 003°04'0 0.0
2014-Oct-25 06:08N 43°21' W 003°04'0 0.0
2014-Oct-25 05:32N 43°21' W 003°04'0 0.0
2014-Oct-25 04:32N 43°21' W 003°04'0 0.0
2014-Oct-25 03:32N 43°21' W 003°04'0 0.0
2014-Oct-25 02:32N 43°21' W 003°04'0 0.0
2014-Oct-25 01:29N 43°21' W 003°04'0 0.0
2014-Oct-25 00:11N 43°21' W 003°04'0 0.0
2014-Oct-24 23:32N 43°21' W 003°04'0 0.0
2014-Oct-24 22:20N 43°21' W 003°04'0 0.0
2014-Oct-24 21:32N 43°21' W 003°04'0 0.0
2014-Oct-24 20:26N 43°22' W 003°04'0 0.2
2014-Oct-24 19:32N 43°21' W 003°03'4 4.1
2014-Oct-24 18:34N 43°25' W 003°04'1010.0
2014-Oct-24 17:33N 43°30' W 002°51'30 9.7
2014-Oct-24 14:29N 43°31' W 002°10'1010.1
2014-Oct-24 13:29N 43°31' W 001°56'19 9.9
2014-Oct-24 11:33N 43°32' W 001°30'0 0.0
2014-Oct-24 10:18N 43°32' W 001°30'0 0.0
2014-Oct-24 09:33N 43°32' W 001°30'0 0.0
2014-Oct-24 08:33N 43°32' W 001°30'0 0.0
2014-Oct-24 07:30N 43°32' W 001°30'0 0.0
2014-Oct-24 06:33N 43°32' W 001°30'0 0.0
2014-Oct-24 05:33N 43°32' W 001°30'0 0.0
2014-Oct-24 04:33N 43°32' W 001°30'0 0.0
2014-Oct-24 03:30N 43°32' W 001°30'0 0.0
2014-Oct-24 02:33N 43°32' W 001°30'0 0.0
2014-Oct-24 01:33N 43°32' W 001°30'0 0.0
2014-Oct-24 00:33N 43°32' W 001°30'0 0.0
2014-Oct-23 23:33N 43°32' W 001°30'0 0.0
2014-Oct-23 22:33N 43°32' W 001°30'0 0.0
2014-Oct-23 21:21N 43°32' W 001°30'0 0.0
2014-Oct-23 20:33N 43°32' W 001°30'0 0.0
2014-Oct-23 19:27N 43°32' W 001°30'0 0.0
2014-Oct-23 18:33N 43°32' W 001°30'0 0.0
2014-Oct-23 17:30N 43°32' W 001°30'0 0.0
2014-Oct-23 15:15N 43°32' W 001°30'0 0.0
2014-Oct-23 14:33N 43°32' W 001°30'0 0.0
2014-Oct-23 13:03N 43°32' W 001°30'0 0.0
2014-Oct-23 12:24N 43°32' W 001°30'0 0.0
2014-Oct-23 11:30N 43°32' W 001°30'3 0.2
2014-Oct-22 21:33N 43°33' W 001°33'1 0.1
2014-Oct-22 07:27N 43°34' W 001°34'0 0.0
2014-Oct-22 05:34N 43°34' W 001°34'  
Track history (hours):
 
Tides and Currents Weather Stations Pressure Air Temp Water Temp Dewpoint Dewpoint Depression Visibility Wind Speed Wind Dir Waves Ship Positions

#dbistima

Last reported at 2014-Nov-01 02:33 UTC. Time now 2014-Nov-01 06:57 UTC.
Position N 53°02' E 001°19'.

MMSI: 304010972.

Date/timePositionNaut miles runAvg speedWind from/ knotsBaromVisibWave heightAir tempDewpointWater temp
2014-Nov-01 02:33N 53°02' E 001°19'8 8.3
2014-Nov-01 01:34N 52°59' E 001°31'8 8.0
2014-Nov-01 00:34N 52°54' E 001°41'9 8.7
2014-Oct-31 23:33N 52°48' E 001°53'9 9.4
2014-Oct-31 22:34N 52°43' E 002°06'1010.0
2014-Oct-31 21:33N 52°38' E 002°20'1110.4
2014-Oct-31 20:32N 52°33' E 002°35'1010.3
2014-Oct-31 19:33N 52°27' E 002°49'1010.1
2014-Oct-31 18:34N 52°22' E 003°03'10 9.8
2014-Oct-31 17:34N 52°16' E 003°15'10 9.8
2014-Oct-31 16:33N 52°10' E 003°29'10 9.9
2014-Oct-31 15:34N 52°05' E 003°43'1010.3
2014-Oct-31 14:34N 52°01' E 003°58'1211.9
2014-Oct-31 13:34N 51°55' E 004°14'1010.1
2014-Oct-31 12:33N 51°50' E 004°29'8 8.0
2014-Oct-31 11:34N 51°44' E 004°38'3 0.4
2014-Oct-31 03:23N 51°41' E 004°35'0 0.0
2014-Oct-31 02:33N 51°41' E 004°35'0 0.0
2014-Oct-31 00:11N 51°41' E 004°36'0 0.0
2014-Oct-30 19:11N 51°41' E 004°36'0 0.0
2014-Oct-30 18:15N 51°41' E 004°36'0 0.0
2014-Oct-30 17:32N 51°41' E 004°36'3 2.8
2014-Oct-30 16:33N 51°44' E 004°38'7 7.1
2014-Oct-30 15:34N 51°50' E 004°31'8 7.8
2014-Oct-30 14:33N 51°53' E 004°20'8 8.4
2014-Oct-30 13:33N 51°58' E 004°09'9 9.0
2014-Oct-30 12:33N 51°60' E 003°55'7 6.6
2014-Oct-30 11:33N 51°57' E 003°46'0 0.2
2014-Oct-30 10:33N 51°56' E 003°46'0 0.0
2014-Oct-30 09:06N 51°56' E 003°46'0 0.0
2014-Oct-30 08:30N 51°56' E 003°46'0 0.0
2014-Oct-30 07:33N 51°56' E 003°46'0 0.1
2014-Oct-30 05:33N 51°57' E 003°46'13 5.4
2014-Oct-30 03:05N 51°54' E 003°24'3 5.4
2014-Oct-30 02:31N 51°52' E 003°21'8 8.8
2014-Oct-30 01:33N 51°45' E 003°13'10 9.7
2014-Oct-30 00:33N 51°37' E 003°21'1010.0
2014-Oct-29 23:33N 51°29' E 003°30'10 9.5
2014-Oct-29 22:33N 51°23' E 003°43'5 5.2
2014-Oct-29 21:32N 51°20' E 003°49'7 6.9
2014-Oct-29 20:33N 51°13' E 003°48'3 2.9
2014-Oct-29 19:31N 51°10' E 003°47'0 0.0
2014-Oct-29 18:31N 51°10' E 003°47'0 0.0
2014-Oct-29 17:31N 51°10' E 003°47'0 0.0
2014-Oct-29 16:31N 51°10' E 003°47'0 0.0
2014-Oct-29 15:31N 51°10' E 003°47'0 0.0
2014-Oct-29 14:31N 51°10' E 003°47'0 0.0
2014-Oct-29 13:31N 51°10' E 003°47'0 0.0
2014-Oct-29 12:31N 51°10' E 003°47'0 0.0
2014-Oct-29 11:28N 51°10' E 003°47'0 0.0
2014-Oct-29 10:31N 51°10' E 003°47'0 0.0
2014-Oct-29 09:31N 51°10' E 003°47'0 0.0
2014-Oct-29 08:31N 51°10' E 003°47'0 0.0
2014-Oct-29 07:31N 51°10' E 003°47'0 0.0
2014-Oct-29 06:28N 51°10' E 003°47'0 0.0
2014-Oct-29 05:31N 51°10' E 003°47'0 0.0
2014-Oct-29 04:31N 51°10' E 003°47'0 0.0
2014-Oct-29 03:31N 51°10' E 003°47'0 0.0
2014-Oct-29 02:31N 51°10' E 003°47'0 0.0
2014-Oct-29 01:31N 51°10' E 003°47'0 0.0
2014-Oct-29 00:31N 51°10' E 003°47'0 0.0
2014-Oct-28 23:31N 51°10' E 003°47'0 0.0
2014-Oct-28 22:31N 51°10' E 003°47'0 0.0
2014-Oct-28 21:31N 51°10' E 003°47'1 0.8
2014-Oct-28 20:33N 51°10' E 003°48'8 7.8
2014-Oct-28 19:33N 51°18' E 003°50'3 2.9
2014-Oct-28 18:33N 51°21' E 003°48'8 7.8
2014-Oct-28 17:33N 51°25' E 003°38'10 9.7
2014-Oct-28 16:33N 51°24' E 003°22'1211.5
2014-Oct-28 15:29N 51°22' E 003°03'1111.9
2014-Oct-28 14:33N 51°22' E 002°45'6 6.2
2014-Oct-28 13:33N 51°22' E 002°35'8 7.6
2014-Oct-28 12:33N 51°20' E 002°24'9 9.3
2014-Oct-28 11:33N 51°15' E 002°11'11 8.2
2014-Oct-28 10:09N 51°10' E 001°55'5 7.8
2014-Oct-28 09:34N 51°07' E 001°49'8 7.6
2014-Oct-28 08:33N 51°02' E 001°40'8 8.1
2014-Oct-28 07:33N 50°56' E 001°31'10 9.0
2014-Oct-28 06:26N 50°47' E 001°25'29810.0
2014-Oct-27 00:33N 48°45' W 005°37'31 7.7
2014-Oct-26 20:33N 48°14' W 005°33'271 9.5
2014-Oct-25 16:07N 43°59' W 003°23'6 9.4
2014-Oct-25 15:30N 43°53' W 003°20'34 7.8
2014-Oct-25 11:07N 43°22' W 003°04'0 0.0
2014-Oct-25 09:26N 43°22' W 003°04'0 0.0
2014-Oct-25 08:23N 43°21' W 003°04'0 0.0
2014-Oct-25 07:17N 43°21' W 003°04'0 0.0
2014-Oct-25 06:08N 43°21' W 003°04'0 0.0
2014-Oct-25 05:32N 43°21' W 003°04'0 0.0
2014-Oct-25 04:32N 43°21' W 003°04'0 0.0
2014-Oct-25 03:32N 43°21' W 003°04'0 0.0
2014-Oct-25 02:32N 43°21' W 003°04'0 0.0
2014-Oct-25 01:29N 43°21' W 003°04'0 0.0
2014-Oct-25 00:11N 43°21' W 003°04'0 0.0
2014-Oct-24 23:32N 43°21' W 003°04'0 0.0
2014-Oct-24 22:20N 43°21' W 003°04'0 0.0
2014-Oct-24 21:32N 43°21' W 003°04'0 0.0
2014-Oct-24 20:26N 43°22' W 003°04'0 0.2
2014-Oct-24 19:32N 43°21' W 003°03'4 4.1
2014-Oct-24 18:34N 43°25' W 003°04'1010.0
2014-Oct-24 17:33N 43°30' W 002°51'30 9.7
2014-Oct-24 14:29N 43°31' W 002°10'1010.1
2014-Oct-24 13:29N 43°31' W 001°56'19 9.9
2014-Oct-24 11:33N 43°32' W 001°30'0 0.0
2014-Oct-24 10:18N 43°32' W 001°30'0 0.0
2014-Oct-24 09:33N 43°32' W 001°30'0 0.0
2014-Oct-24 08:33N 43°32' W 001°30'0 0.0
2014-Oct-24 07:30N 43°32' W 001°30'0 0.0
2014-Oct-24 06:33N 43°32' W 001°30'0 0.0
2014-Oct-24 05:33N 43°32' W 001°30'0 0.0
2014-Oct-24 04:33N 43°32' W 001°30'0 0.0
2014-Oct-24 03:30N 43°32' W 001°30'0 0.0
2014-Oct-24 02:33N 43°32' W 001°30'0 0.0
2014-Oct-24 01:33N 43°32' W 001°30'0 0.0
2014-Oct-24 00:33N 43°32' W 001°30'0 0.0
2014-Oct-23 23:33N 43°32' W 001°30'0 0.0
2014-Oct-23 22:33N 43°32' W 001°30'0 0.0
2014-Oct-23 21:21N 43°32' W 001°30'0 0.0
2014-Oct-23 20:33N 43°32' W 001°30'0 0.0
2014-Oct-23 19:27N 43°32' W 001°30'0 0.0
2014-Oct-23 18:33N 43°32' W 001°30'0 0.0
2014-Oct-23 17:30N 43°32' W 001°30'0 0.0
2014-Oct-23 15:15N 43°32' W 001°30'0 0.0
2014-Oct-23 14:33N 43°32' W 001°30'0 0.0
2014-Oct-23 13:03N 43°32' W 001°30'0 0.0
2014-Oct-23 12:24N 43°32' W 001°30'0 0.0
2014-Oct-23 11:30N 43°32' W 001°30'3 0.2
2014-Oct-22 21:33N 43°33' W 001°33'1 0.1
2014-Oct-22 07:27N 43°34' W 001°34'0 0.0
2014-Oct-22 05:34N 43°34' W 001°34'  

Dump ship's entire track history